Time;durP1;ratioP1;P1;durP2;ratioP2;P2;SDS_P1;SDS_P2;PMS_P1;PMS_P2;Temp;Humidity;BMP_temperature;BMP_pressure;BME280_temperature;BME280_humidity;BME280_pressure;Samples;Min_cycle;Max_cycle;Signal;HPM_P1;HPM_P2
2023/12/24 00:00:30;;;;;;;1.93;1.00;;;8.50;99.90;;;;;;5029860;28;20255;-53
2023/12/24 00:02:56;;;;;;;2.23;1.10;;;8.50;99.90;;;;;;5031027;28;20215;-53
2023/12/24 00:05:21;;;;;;;2.47;1.00;;;8.50;99.90;;;;;;5030954;28;20199;-50
2023/12/24 00:07:47;;;;;;;4.70;1.27;;;8.50;99.90;;;;;;5030974;28;20191;-51
2023/12/24 00:10:12;;;;;;;3.00;1.40;;;8.60;99.90;;;;;;5029512;28;20212;-55
2023/12/24 00:12:38;;;;;;;4.40;1.03;;;8.60;99.90;;;;;;5030943;28;20191;-50
2023/12/24 00:15:05;;;;;;;2.80;1.00;;;8.50;99.90;;;;;;5030862;28;20184;-50
2023/12/24 00:17:31;;;;;;;2.87;1.13;;;8.50;99.90;;;;;;5030710;28;20195;-50
2023/12/24 00:19:58;;;;;;;5.17;1.20;;;8.50;99.90;;;;;;5029939;28;20278;-53
2023/12/24 00:22:23;;;;;;;4.03;1.00;;;8.50;99.90;;;;;;5030471;28;20249;-52
2023/12/24 00:24:49;;;;;;;3.23;1.83;;;8.50;99.90;;;;;;5030602;28;20682;-53
2023/12/24 00:27:15;;;;;;;4.13;1.07;;;8.50;99.90;;;;;;5029591;28;20275;-49
2023/12/24 00:29:40;;;;;;;2.57;1.07;;;8.50;99.90;;;;;;5029904;28;20184;-50
2023/12/24 00:32:06;;;;;;;5.43;1.13;;;8.60;99.90;;;;;;5030603;28;20545;-53
2023/12/24 00:34:32;;;;;;;1.77;0.90;;;8.60;99.90;;;;;;5030384;28;20179;-51
2023/12/24 00:36:57;;;;;;;2.93;1.00;;;8.60;99.90;;;;;;5030392;28;20215;-51
2023/12/24 00:39:23;;;;;;;1.63;0.93;;;8.60;99.90;;;;;;5029450;28;20188;-51
2023/12/24 00:41:48;;;;;;;14.73;5.60;;;8.60;99.90;;;;;;5030441;28;20282;-49
2023/12/24 00:44:14;;;;;;;2.83;1.20;;;8.60;99.90;;;;;;5030277;28;20211;-54
2023/12/24 00:46:39;;;;;;;6.23;1.00;;;8.60;99.90;;;;;;5030407;28;20176;-50
2023/12/24 00:49:05;;;;;;;2.57;0.90;;;8.50;99.90;;;;;;5029679;28;20184;-51
2023/12/24 00:51:30;;;;;;;2.73;0.90;;;8.50;99.90;;;;;;5029937;28;20265;-49
2023/12/24 00:53:56;;;;;;;1.80;0.90;;;8.50;99.90;;;;;;5030384;28;20191;-53
2023/12/24 00:56:21;;;;;;;3.97;0.80;;;8.50;99.90;;;;;;5030251;28;20292;-51
2023/12/24 00:58:47;;;;;;;2.00;0.87;;;8.60;99.90;;;;;;5029726;28;20211;-49
2023/12/24 01:01:12;;;;;;;1.93;0.87;;;8.60;99.90;;;;;;5029850;28;20232;-52
2023/12/24 01:03:38;;;;;;;2.83;0.83;;;8.50;99.90;;;;;;5030257;28;20183;-52
2023/12/24 01:06:04;;;;;;;2.53;0.80;;;8.60;99.90;;;;;;5030106;28;20204;-51
2023/12/24 01:08:29;;;;;;;1.90;0.77;;;8.60;99.90;;;;;;5032280;28;20191;-51
2023/12/24 01:10:55;;;;;;;2.93;0.60;;;8.60;99.90;;;;;;5035238;28;20286;-52
2023/12/24 01:13:20;;;;;;;2.17;0.77;;;8.60;99.90;;;;;;5029907;28;20219;-51
2023/12/24 01:15:46;;;;;;;0.93;0.60;;;8.70;99.90;;;;;;5030167;28;20180;-50
2023/12/24 01:18:13;;;;;;;1.73;0.50;;;8.60;99.90;;;;;;5029956;28;20187;-51
2023/12/24 01:20:39;;;;;;;2.63;0.60;;;8.60;99.90;;;;;;5029138;28;20207;-50
2023/12/24 01:23:05;;;;;;;4.33;0.83;;;8.60;99.90;;;;;;5032753;28;20191;-52
2023/12/24 01:25:31;;;;;;;2.57;0.60;;;8.60;99.90;;;;;;5033944;28;20176;-51
2023/12/24 01:27:56;;;;;;;2.97;0.90;;;8.60;99.90;;;;;;5033103;28;20215;-52
2023/12/24 01:30:22;;;;;;;2.37;0.60;;;8.50;99.90;;;;;;5033112;28;20211;-51
2023/12/24 01:32:47;;;;;;;1.63;0.53;;;8.50;99.90;;;;;;5033934;28;20294;-49
2023/12/24 01:35:13;;;;;;;1.23;0.70;;;8.50;99.90;;;;;;5033517;28;20184;-54
2023/12/24 01:37:38;;;;;;;1.33;0.57;;;8.50;99.90;;;;;;5034140;28;20184;-52
2023/12/24 01:40:05;;;;;;;0.90;0.60;;;8.50;99.90;;;;;;5032723;28;20204;-51
2023/12/24 01:42:30;;;;;;;0.80;0.50;;;8.50;99.90;;;;;;5033444;28;20565;-51
2023/12/24 01:44:56;;;;;;;3.97;0.50;;;8.50;99.90;;;;;;5033734;28;20187;-54
2023/12/24 01:47:22;;;;;;;2.20;0.60;;;8.50;99.90;;;;;;5033448;28;20213;-51
2023/12/24 01:49:49;;;;;;;1.10;0.50;;;8.50;99.90;;;;;;5032702;28;20195;-54
2023/12/24 01:52:15;;;;;;;1.37;0.60;;;8.50;99.90;;;;;;5033349;28;20659;-50
2023/12/24 01:54:41;;;;;;;2.67;0.40;;;8.50;99.90;;;;;;5033531;28;20190;-51
2023/12/24 01:57:07;;;;;;;1.03;0.30;;;8.50;99.90;;;;;;5033454;28;20645;-50
2023/12/24 01:59:34;;;;;;;3.50;0.50;;;8.60;99.90;;;;;;5048291;28;20183;-50
2023/12/24 02:02:01;;;;;;;0.87;0.37;;;8.60;99.90;;;;;;5033396;28;20211;-50
2023/12/24 02:04:27;;;;;;;0.30;0.30;;;8.60;99.90;;;;;;5033202;28;20188;-49
2023/12/24 02:06:52;;;;;;;1.07;0.30;;;8.60;99.90;;;;;;5033313;28;20191;-51
2023/12/24 02:09:18;;;;;;;1.03;0.40;;;8.50;99.90;;;;;;5032224;28;20184;-51
2023/12/24 02:11:43;;;;;;;2.83;0.30;;;8.50;99.90;;;;;;5033133;28;20554;-54
2023/12/24 02:14:09;;;;;;;1.50;0.37;;;8.50;99.90;;;;;;5033244;28;20269;-49
2023/12/24 02:16:38;;;;;;;1.83;0.30;;;8.50;99.90;;;;;;5032945;28;20612;-49
2023/12/24 02:19:06;;;;;;;1.33;0.30;;;8.60;99.90;;;;;;5032364;28;20188;-51
2023/12/24 02:21:31;;;;;;;0.80;0.30;;;8.60;99.90;;;;;;5032752;28;20687;-50
2023/12/24 02:23:57;;;;;;;1.07;0.40;;;8.60;99.90;;;;;;5033003;28;20183;-52
2023/12/24 02:26:58;;;;;;;0.23;0.20;;;8.60;99.90;;;;;;5031783;28;20192;-56
2023/12/24 02:29:31;;;;;;;0.43;0.40;;;8.60;99.90;;;;;;5030779;28;20179;-50
2023/12/24 02:32:06;;;;;;;0.20;0.20;;;8.60;99.90;;;;;;5032788;28;20204;-51
2023/12/24 02:34:35;;;;;;;0.40;0.27;;;8.50;99.90;;;;;;5032247;28;20183;-54
2023/12/24 02:37:01;;;;;;;0.43;0.30;;;8.50;99.90;;;;;;5032795;28;20187;-53
2023/12/24 02:39:26;;;;;;;2.57;0.57;;;8.50;99.90;;;;;;5032253;28;20198;-50
2023/12/24 02:41:52;;;;;;;0.43;0.30;;;8.50;99.90;;;;;;5032475;28;20291;-52
2023/12/24 02:44:17;;;;;;;0.20;0.20;;;8.50;99.90;;;;;;5040670;28;20183;-51
2023/12/24 02:46:43;;;;;;;1.90;0.20;;;8.60;99.90;;;;;;5032576;28;20180;-51
2023/12/24 02:49:08;;;;;;;0.80;0.20;;;8.50;99.90;;;;;;5031887;28;20187;-53
2023/12/24 02:51:34;;;;;;;0.20;0.20;;;8.60;99.90;;;;;;5032477;28;20294;-52
2023/12/24 02:53:59;;;;;;;0.40;0.20;;;8.60;99.90;;;;;;5032368;28;20569;-54
2023/12/24 02:56:25;;;;;;;0.40;0.20;;;8.60;99.90;;;;;;5032312;28;20532;-54
2023/12/24 02:58:50;;;;;;;0.13;0.10;;;8.60;99.90;;;;;;5031671;28;20184;-51
2023/12/24 03:01:16;;;;;;;0.77;0.37;;;8.70;99.90;;;;;;5032050;28;20224;-52
2023/12/24 03:03:42;;;;;;;0.10;0.10;;;8.70;99.90;;;;;;5032405;28;20187;-53
2023/12/24 03:06:07;;;;;;;0.20;0.20;;;8.70;99.90;;;;;;5032245;28;20195;-56
2023/12/24 03:08:33;;;;;;;0.20;0.10;;;8.70;99.90;;;;;;5030238;28;20187;-52
2023/12/24 03:11:02;;;;;;;0.10;0.10;;;8.80;99.90;;;;;;5031506;28;20230;-55
2023/12/24 03:13:27;;;;;;;0.77;0.20;;;8.80;99.90;;;;;;5031866;28;20759;-55
2023/12/24 03:15:54;;;;;;;0.20;0.20;;;8.80;99.90;;;;;;5031939;28;20192;-56
2023/12/24 03:18:19;;;;;;;0.97;0.20;;;8.80;99.90;;;;;;5031655;28;20188;-52
2023/12/24 03:20:45;;;;;;;3.20;0.17;;;8.90;99.90;;;;;;5031161;28;20203;-51
2023/12/24 03:23:10;;;;;;;0.50;0.30;;;8.90;99.90;;;;;;5032030;28;20267;-53
2023/12/24 03:25:36;;;;;;;4.10;0.70;;;8.90;99.90;;;;;;5031484;28;20184;-51
2023/12/24 03:28:02;;;;;;;0.50;0.40;;;8.90;99.90;;;;;;5031871;28;20179;-51
2023/12/24 03:30:28;;;;;;;0.13;0.13;;;8.90;99.90;;;;;;5031185;28;20208;-56
2023/12/24 03:32:54;;;;;;;2.00;0.30;;;8.90;99.90;;;;;;5031853;28;20179;-52
2023/12/24 03:35:20;;;;;;;0.27;0.20;;;8.80;99.90;;;;;;5031712;28;20206;-55
2023/12/24 03:37:45;;;;;;;0.67;0.30;;;8.90;99.90;;;;;;5031877;28;20212;-53
2023/12/24 03:40:11;;;;;;;0.70;0.30;;;8.90;99.90;;;;;;5031075;28;20208;-52
2023/12/24 03:42:37;;;;;;;1.40;0.30;;;8.90;99.90;;;;;;5031790;28;20195;-52
2023/12/24 03:45:03;;;;;;;0.40;0.20;;;8.90;99.90;;;;;;5031059;28;20180;-52
2023/12/24 03:47:29;;;;;;;0.40;0.20;;;8.90;99.90;;;;;;5031819;28;20261;-54
2023/12/24 03:49:54;;;;;;;0.20;0.13;;;8.90;99.90;;;;;;5031849;28;20250;-54
2023/12/24 03:52:20;;;;;;;1.47;0.20;;;8.90;99.90;;;;;;5032152;28;20203;-55
2023/12/24 03:54:45;;;;;;;0.17;0.10;;;8.90;99.90;;;;;;5031101;28;20557;-54
2023/12/24 03:57:11;;;;;;;5.03;0.30;;;8.90;99.90;;;;;;5031206;28;20562;-51
2023/12/24 03:59:38;;;;;;;0.40;0.20;;;8.90;99.90;;;;;;5028875;28;20234;-51
2023/12/24 04:02:04;;;;;;;0.30;0.20;;;8.80;99.90;;;;;;5031058;28;20212;-56
2023/12/24 04:04:29;;;;;;;4.37;0.30;;;8.80;99.90;;;;;;5030998;28;20556;-54
2023/12/24 04:06:55;;;;;;;0.10;0.10;;;8.80;99.90;;;;;;5031100;28;20222;-55
2023/12/24 04:09:21;;;;;;;1.13;0.30;;;8.80;99.90;;;;;;5030006;28;20186;-51
2023/12/24 04:11:50;;;;;;;0.90;0.30;;;8.70;99.90;;;;;;5031193;28;20215;-55
2023/12/24 04:14:16;;;;;;;0.87;0.40;;;8.70;99.90;;;;;;5030772;28;20229;-52
2023/12/24 04:16:42;;;;;;;0.93;0.27;;;8.70;99.90;;;;;;5030887;28;20175;-54
2023/12/24 04:19:07;;;;;;;0.57;0.20;;;8.60;99.90;;;;;;5030186;28;20202;-52
2023/12/24 04:21:33;;;;;;;0.40;0.40;;;8.60;99.90;;;;;;5030452;28;20207;-51
2023/12/24 04:24:02;;;;;;;2.67;0.40;;;8.60;99.90;;;;;;5030627;28;20187;-54
2023/12/24 04:26:27;;;;;;;2.10;0.37;;;8.60;99.90;;;;;;5030673;28;20184;-55
2023/12/24 04:28:53;;;;;;;0.50;0.20;;;8.60;99.90;;;;;;5030008;28;20206;-53
2023/12/24 04:31:18;;;;;;;1.43;0.33;;;8.60;99.90;;;;;;5030409;28;20262;-51
2023/12/24 04:33:44;;;;;;;1.60;0.40;;;8.60;99.90;;;;;;5030691;28;20559;-55
2023/12/24 04:36:18;;;;;;;0.30;0.30;;;8.60;99.90;;;;;;5030708;28;20564;-52
2023/12/24 04:38:44;;;;;;;2.30;0.67;;;8.60;99.90;;;;;;5022274;28;20674;-54
2023/12/24 04:41:17;;;;;;;3.47;0.30;;;8.60;99.90;;;;;;5030378;28;20218;-52
2023/12/24 04:43:42;;;;;;;0.87;0.40;;;8.60;99.90;;;;;;5030521;28;20195;-51
2023/12/24 04:46:08;;;;;;;1.17;0.20;;;8.50;99.90;;;;;;5030479;28;20184;-51
2023/12/24 04:48:33;;;;;;;1.97;0.30;;;8.50;99.90;;;;;;5030039;28;20188;-53
2023/12/24 04:50:59;;;;;;;0.80;0.30;;;8.40;99.90;;;;;;5029783;28;20282;-54
2023/12/24 04:53:24;;;;;;;0.83;0.30;;;8.40;99.90;;;;;;5029969;28;20647;-52
2023/12/24 04:55:50;;;;;;;3.47;0.50;;;8.40;99.90;;;;;;5030224;28;20263;-56
2023/12/24 04:58:15;;;;;;;1.00;0.60;;;8.30;99.90;;;;;;5030018;28;20188;-52
2023/12/24 05:00:41;;;;;;;3.60;0.50;;;8.30;99.90;;;;;;5029033;28;21057;-54
2023/12/24 05:03:06;;;;;;;0.40;0.33;;;8.30;99.90;;;;;;5030167;28;21161;-52
2023/12/24 05:05:32;;;;;;;0.93;0.40;;;8.20;99.90;;;;;;5029970;28;20572;-51
2023/12/24 05:07:58;;;;;;;9.23;3.10;;;8.30;99.90;;;;;;5030208;28;20895;-51
2023/12/24 05:10:23;;;;;;;6.93;2.97;;;8.20;99.90;;;;;;5029628;28;20622;-55
2023/12/24 05:12:49;;;;;;;9.43;3.10;;;8.20;99.90;;;;;;5030585;28;20184;-54
2023/12/24 05:15:16;;;;;;;5.00;2.00;;;8.20;99.90;;;;;;5022150;28;20267;-54
2023/12/24 05:17:42;;;;;;;2.07;0.90;;;8.30;99.90;;;;;;5030157;28;20218;-54
2023/12/24 05:20:08;;;;;;;1.40;0.60;;;8.30;99.90;;;;;;5029220;28;20691;-51
2023/12/24 05:22:33;;;;;;;1.67;0.40;;;8.30;99.90;;;;;;5030010;28;20184;-55
2023/12/24 05:24:59;;;;;;;4.67;0.70;;;8.30;99.90;;;;;;5030031;28;20180;-55
2023/12/24 05:27:25;;;;;;;2.87;0.77;;;8.30;99.90;;;;;;5030089;28;20192;-51
2023/12/24 05:29:50;;;;;;;2.40;0.80;;;8.30;99.90;;;;;;5029362;28;20180;-55
2023/12/24 05:32:16;;;;;;;0.87;0.33;;;8.30;99.90;;;;;;5021974;28;20181;-57
2023/12/24 05:34:42;;;;;;;1.37;0.40;;;8.30;99.90;;;;;;5022323;28;20269;-52
2023/12/24 05:37:08;;;;;;;1.50;0.60;;;8.30;99.90;;;;;;5021647;28;20215;-51
2023/12/24 05:39:34;;;;;;;1.03;0.63;;;8.30;99.90;;;;;;5026571;28;20222;-53
2023/12/24 05:41:59;;;;;;;0.80;0.50;;;8.30;99.90;;;;;;5024474;28;20702;-53
2023/12/24 05:44:25;;;;;;;2.40;0.40;;;8.30;99.90;;;;;;5029860;28;20180;-55
2023/12/24 05:46:51;;;;;;;0.87;0.40;;;8.30;99.90;;;;;;5029949;28;20172;-54
2023/12/24 05:49:17;;;;;;;0.93;0.50;;;8.30;99.90;;;;;;5029106;28;20275;-53
2023/12/24 05:51:43;;;;;;;2.27;1.10;;;8.30;99.90;;;;;;5028484;28;20349;-51
2023/12/24 05:54:08;;;;;;;0.53;0.30;;;8.30;99.90;;;;;;5029658;28;20194;-55
2023/12/24 05:56:34;;;;;;;1.07;0.33;;;8.40;99.90;;;;;;5029798;28;20196;-56
2023/12/24 05:59:00;;;;;;;0.40;0.23;;;8.40;99.90;;;;;;5029090;28;20183;-56
2023/12/24 06:01:25;;;;;;;0.30;0.30;;;8.40;99.90;;;;;;5029445;28;20591;-55
2023/12/24 06:03:51;;;;;;;0.27;0.27;;;8.40;99.90;;;;;;5029724;28;20330;-51
2023/12/24 06:06:16;;;;;;;1.17;0.40;;;8.40;99.90;;;;;;5029489;28;20187;-52
2023/12/24 06:08:42;;;;;;;0.50;0.30;;;8.30;99.90;;;;;;5030730;28;20191;-55
2023/12/24 06:11:17;;;;;;;0.27;0.20;;;8.30;99.90;;;;;;5033552;28;20226;-54
2023/12/24 06:13:43;;;;;;;0.20;0.20;;;8.40;99.90;;;;;;5025520;28;20274;-56
2023/12/24 06:16:11;;;;;;;0.33;0.30;;;8.40;99.90;;;;;;5033335;28;20187;-51
2023/12/24 06:18:37;;;;;;;2.87;0.40;;;8.50;99.90;;;;;;5032676;28;20288;-55
2023/12/24 06:21:04;;;;;;;0.63;0.40;;;8.50;99.90;;;;;;5032543;28;20298;-55
2023/12/24 06:23:31;;;;;;;0.20;0.20;;;8.50;99.90;;;;;;5032897;28;20199;-55
2023/12/24 06:25:58;;;;;;;1.23;0.30;;;8.50;99.90;;;;;;5027430;28;20197;-55
2023/12/24 06:28:23;;;;;;;0.30;0.30;;;8.50;99.90;;;;;;5029487;28;20180;-54
2023/12/24 06:30:49;;;;;;;0.20;0.20;;;8.50;99.90;;;;;;5025189;28;20253;-55
2023/12/24 06:33:14;;;;;;;0.20;0.20;;;8.40;99.90;;;;;;5032685;28;20242;-53
2023/12/24 06:35:40;;;;;;;0.30;0.20;;;8.50;99.90;;;;;;5032686;28;20199;-55
2023/12/24 06:38:06;;;;;;;0.20;0.20;;;8.50;99.90;;;;;;5032863;28;20191;-52
2023/12/24 06:40:33;;;;;;;2.63;0.30;;;8.40;99.90;;;;;;5031748;28;20220;-55
2023/12/24 06:42:59;;;;;;;0.30;0.20;;;8.50;99.90;;;;;;5032701;28;20180;-55
2023/12/24 06:45:25;;;;;;;2.93;0.50;;;8.50;99.90;;;;;;5033241;28;20251;-55
2023/12/24 06:47:50;;;;;;;3.23;0.97;;;8.50;99.90;;;;;;5032796;28;20204;-51
2023/12/24 06:50:16;;;;;;;0.57;0.20;;;8.50;99.90;;;;;;5031935;28;20208;-53
2023/12/24 06:52:41;;;;;;;0.40;0.37;;;8.50;99.90;;;;;;5032558;28;20195;-55
2023/12/24 06:55:07;;;;;;;0.20;0.20;;;8.50;99.90;;;;;;5032531;28;20569;-55
2023/12/24 06:57:33;;;;;;;1.20;0.50;;;8.50;99.90;;;;;;5032313;28;20663;-55
2023/12/24 06:59:58;;;;;;;2.17;0.40;;;8.60;99.90;;;;;;5031758;28;20227;-51
2023/12/24 07:02:24;;;;;;;1.00;0.50;;;8.50;99.90;;;;;;5032141;28;20203;-51
2023/12/24 07:04:49;;;;;;;1.00;0.70;;;8.60;99.90;;;;;;5032448;28;20188;-54
2023/12/24 07:07:15;;;;;;;0.50;0.40;;;8.60;99.90;;;;;;5032675;28;20199;-56
2023/12/24 07:09:41;;;;;;;0.20;0.20;;;8.60;99.90;;;;;;5023357;28;20187;-55
2023/12/24 07:12:06;;;;;;;0.20;0.20;;;8.60;99.90;;;;;;5032062;28;20558;-55
2023/12/24 07:14:32;;;;;;;0.60;0.30;;;8.60;99.90;;;;;;5031858;28;20557;-56
2023/12/24 07:16:58;;;;;;;0.40;0.20;;;8.60;99.90;;;;;;5024281;28;20289;-56
2023/12/24 07:19:23;;;;;;;0.47;0.30;;;8.70;99.90;;;;;;5031220;28;20673;-52
2023/12/24 07:21:49;;;;;;;0.73;0.30;;;8.80;99.90;;;;;;5031742;28;20644;-53
2023/12/24 07:24:15;;;;;;;0.20;0.10;;;8.70;99.90;;;;;;5031911;28;20686;-54
2023/12/24 07:26:40;;;;;;;0.53;0.20;;;8.70;99.90;;;;;;5031961;28;20183;-55
2023/12/24 07:29:06;;;;;;;0.77;0.10;;;8.70;99.90;;;;;;5031496;28;20598;-51
2023/12/24 07:31:31;;;;;;;0.43;0.20;;;8.80;99.90;;;;;;5031959;28;20250;-55
2023/12/24 07:33:57;;;;;;;0.10;0.10;;;8.80;99.90;;;;;;5032411;28;20245;-56
2023/12/24 07:36:23;;;;;;;1.90;0.20;;;8.80;99.90;;;;;;5031697;28;20191;-54
2023/12/24 07:38:49;;;;;;;0.23;0.20;;;8.80;99.90;;;;;;5027028;28;20193;-55
2023/12/24 07:41:14;;;;;;;0.43;0.30;;;8.70;99.90;;;;;;5027864;28;20222;-54
2023/12/24 07:43:40;;;;;;;0.40;0.20;;;8.80;99.90;;;;;;5031477;28;20183;-56
2023/12/24 07:46:06;;;;;;;0.27;0.27;;;8.80;99.90;;;;;;5031541;28;20218;-54
2023/12/24 07:48:31;;;;;;;0.20;0.20;;;8.80;99.90;;;;;;5031506;28;20191;-54
2023/12/24 07:50:57;;;;;;;0.40;0.40;;;8.80;99.90;;;;;;5031018;28;20219;-54
2023/12/24 07:53:22;;;;;;;0.93;0.40;;;8.80;99.90;;;;;;5030664;28;20325;-53
2023/12/24 07:55:49;;;;;;;0.37;0.30;;;8.80;99.90;;;;;;5015910;28;20187;-56
2023/12/24 07:58:15;;;;;;;0.40;0.20;;;8.70;99.90;;;;;;5031293;28;20562;-52
2023/12/24 08:00:40;;;;;;;0.67;0.40;;;8.70;99.90;;;;;;5029699;28;20215;-54
2023/12/24 08:03:06;;;;;;;1.20;0.40;;;8.70;99.90;;;;;;5022229;28;20284;-54
2023/12/24 08:05:31;;;;;;;0.40;0.30;;;8.80;99.90;;;;;;5022144;28;20192;-55
2023/12/24 08:07:57;;;;;;;1.10;0.40;;;8.80;99.90;;;;;;5030420;28;20191;-55
2023/12/24 08:10:23;;;;;;;2.73;0.50;;;8.80;99.90;;;;;;5029702;28;20211;-55
2023/12/24 08:12:48;;;;;;;1.20;0.80;;;8.80;99.90;;;;;;5030554;28;20184;-56
2023/12/24 08:15:14;;;;;;;1.60;0.97;;;8.90;99.90;;;;;;5023091;28;20192;-55
2023/12/24 08:17:42;;;;;;;1.10;0.67;;;8.90;99.90;;;;;;5030232;28;20176;-56
2023/12/24 08:20:09;;;;;;;2.67;1.10;;;9.00;99.90;;;;;;5030015;28;20675;-54
2023/12/24 08:22:36;;;;;;;1.23;0.90;;;9.00;99.90;;;;;;5030221;28;20238;-55
2023/12/24 08:25:02;;;;;;;0.90;0.70;;;9.00;99.90;;;;;;5030210;28;20580;-56
2023/12/24 08:27:27;;;;;;;0.60;0.50;;;9.00;99.90;;;;;;5030333;28;20300;-55
2023/12/24 08:29:55;;;;;;;0.70;0.50;;;9.10;99.90;;;;;;5029564;28;20206;-53
2023/12/24 08:32:21;;;;;;;0.77;0.40;;;9.10;99.90;;;;;;5030003;28;20566;-52
2023/12/24 08:34:47;;;;;;;0.47;0.43;;;9.10;99.90;;;;;;5030922;28;20226;-53
2023/12/24 08:37:13;;;;;;;1.23;0.47;;;9.20;99.90;;;;;;5030305;28;20191;-51
2023/12/24 08:39:38;;;;;;;0.87;0.53;;;9.20;99.90;;;;;;5029100;28;20605;-52
2023/12/24 08:42:04;;;;;;;0.50;0.50;;;9.30;99.90;;;;;;5030038;28;20238;-53
2023/12/24 08:44:29;;;;;;;1.70;1.40;;;9.30;99.90;;;;;;5029785;28;20191;-54
2023/12/24 08:46:55;;;;;;;2.27;1.40;;;9.30;99.90;;;;;;5030403;28;20219;-52
2023/12/24 08:49:21;;;;;;;3.50;0.60;;;9.30;99.90;;;;;;5029341;28;20192;-52
2023/12/24 08:51:46;;;;;;;1.03;0.57;;;9.30;99.90;;;;;;5029817;28;20199;-54
2023/12/24 08:54:12;;;;;;;1.43;0.70;;;9.40;99.90;;;;;;5029846;28;20273;-49
2023/12/24 08:56:37;;;;;;;0.50;0.47;;;9.40;99.90;;;;;;5029908;28;20233;-51
2023/12/24 08:59:03;;;;;;;1.63;1.20;;;9.40;99.90;;;;;;5029692;28;20180;-57
2023/12/24 09:01:29;;;;;;;1.33;0.80;;;9.40;99.90;;;;;;5029734;28;20246;-56
2023/12/24 09:03:55;;;;;;;0.63;0.43;;;9.40;99.90;;;;;;5029768;28;20215;-56
2023/12/24 09:06:20;;;;;;;1.37;0.80;;;9.40;99.90;;;;;;5029580;28;20567;-56
2023/12/24 09:08:46;;;;;;;2.23;1.70;;;9.40;99.90;;;;;;5029601;28;20179;-50
2023/12/24 09:11:11;;;;;;;5.23;1.27;;;9.50;99.90;;;;;;5037246;28;20195;-50
2023/12/24 09:13:37;;;;;;;0.27;0.20;;;9.50;99.90;;;;;;5029967;28;20187;-57
2023/12/24 09:16:03;;;;;;;1.20;0.90;;;9.50;99.90;;;;;;5029797;28;20247;-54
2023/12/24 09:18:29;;;;;;;3.10;2.00;;;9.50;99.90;;;;;;5029574;28;20194;-52
2023/12/24 09:20:54;;;;;;;4.23;1.13;;;9.50;99.90;;;;;;5028868;28;20208;-49
2023/12/24 09:23:20;;;;;;;1.80;1.30;;;9.50;99.90;;;;;;5029376;28;20176;-50
2023/12/24 09:25:45;;;;;;;2.30;1.60;;;9.50;99.90;;;;;;5025716;28;20177;-51
2023/12/24 09:28:11;;;;;;;1.20;0.90;;;9.50;99.90;;;;;;5025182;28;20180;-54
2023/12/24 09:30:37;;;;;;;1.00;0.40;;;9.50;99.90;;;;;;5019221;28;20208;-55
2023/12/24 09:33:03;;;;;;;0.50;0.40;;;9.60;99.90;;;;;;5029684;28;20392;-55
2023/12/24 09:35:30;;;;;;;5.70;2.27;;;9.60;99.90;;;;;;5021372;28;20275;-57
2023/12/24 09:37:55;;;;;;;1.37;0.80;;;9.60;99.90;;;;;;5029163;28;20184;-56
2023/12/24 09:40:21;;;;;;;1.03;0.20;;;9.60;99.90;;;;;;5028013;28;20257;-56
2023/12/24 09:42:47;;;;;;;0.73;0.43;;;9.50;99.90;;;;;;5022166;28;20191;-57
2023/12/24 09:45:12;;;;;;;1.67;1.17;;;9.60;99.90;;;;;;5033712;28;20666;-55
2023/12/24 09:47:38;;;;;;;1.03;0.50;;;9.70;99.90;;;;;;5033018;28;20274;-53
2023/12/24 09:50:04;;;;;;;1.20;0.67;;;9.60;99.90;;;;;;5032489;28;20192;-53
2023/12/24 09:52:30;;;;;;;2.10;1.30;;;9.60;99.90;;;;;;5032990;28;20634;-57
2023/12/24 09:54:56;;;;;;;1.40;0.57;;;9.70;99.90;;;;;;5032984;28;20270;-53
2023/12/24 09:57:22;;;;;;;0.80;0.70;;;9.70;99.90;;;;;;5024756;28;20344;-55
2023/12/24 09:59:48;;;;;;;0.50;0.40;;;9.70;99.90;;;;;;5032250;28;20183;-56
2023/12/24 10:02:13;;;;;;;0.97;0.40;;;9.70;99.90;;;;;;5032564;28;20208;-53
2023/12/24 10:04:39;;;;;;;0.47;0.30;;;9.70;99.90;;;;;;5033052;28;20265;-53
2023/12/24 10:07:06;;;;;;;0.67;0.40;;;9.60;99.90;;;;;;5033172;28;20179;-50
2023/12/24 10:09:49;;;;;;;0.50;0.40;;;9.70;99.90;;;;;;5031904;28;20221;-54
2023/12/24 10:12:14;;;;;;;2.07;0.70;;;9.70;99.90;;;;;;5032873;28;20552;-52
2023/12/24 10:14:41;;;;;;;0.90;0.53;;;9.70;99.90;;;;;;5032605;28;20179;-49
2023/12/24 10:17:07;;;;;;;0.30;0.20;;;9.70;99.90;;;;;;5032943;28;20202;-51
2023/12/24 10:19:34;;;;;;;1.13;0.40;;;9.70;99.90;;;;;;5032070;28;20184;-48
2023/12/24 10:22:07;;;;;;;1.10;0.60;;;9.80;99.90;;;;;;5032599;28;20717;-50
2023/12/24 10:24:35;;;;;;;0.70;0.50;;;9.80;99.90;;;;;;5032433;28;20234;-49
2023/12/24 10:27:09;;;;;;;0.87;0.50;;;9.70;99.90;;;;;;5032509;28;20255;-51
2023/12/24 10:29:37;;;;;;;0.60;0.40;;;9.80;99.90;;;;;;5031884;28;20187;-54
2023/12/24 10:32:03;;;;;;;0.57;0.40;;;9.90;99.90;;;;;;5032375;28;20202;-58
2023/12/24 10:34:30;;;;;;;1.37;0.57;;;10.00;99.90;;;;;;5032190;28;20647;-51
2023/12/24 10:36:58;;;;;;;0.73;0.50;;;10.00;99.90;;;;;;5032510;28;20180;-55
2023/12/24 10:39:24;;;;;;;0.40;0.40;;;10.10;99.90;;;;;;5031390;28;20190;-52
2023/12/24 10:41:56;;;;;;;0.90;0.60;;;10.10;99.90;;;;;;5027863;28;20208;-51
2023/12/24 10:44:22;;;;;;;0.97;0.60;;;10.10;99.90;;;;;;5029058;28;20243;-54
2023/12/24 10:46:48;;;;;;;2.00;0.67;;;10.00;99.90;;;;;;5028251;28;20199;-56
2023/12/24 10:49:14;;;;;;;1.67;0.80;;;10.10;99.90;;;;;;5027289;28;20651;-54
2023/12/24 10:51:40;;;;;;;0.40;0.40;;;10.10;99.90;;;;;;5031879;28;20214;-54
2023/12/24 10:54:07;;;;;;;1.50;0.90;;;10.10;99.90;;;;;;5031842;28;20195;-49
2023/12/24 10:56:42;;;;;;;0.90;0.60;;;10.20;99.90;;;;;;5031953;28;20556;-53
2023/12/24 10:59:49;;;;;;;0.50;0.30;;;10.30;99.90;;;;;;5031838;28;20191;-49
2023/12/24 11:02:16;;;;;;;0.50;0.40;;;10.30;99.90;;;;;;5027858;28;20203;-52
2023/12/24 11:04:47;;;;;;;0.70;0.50;;;10.30;99.90;;;;;;5031841;28;20188;-53
2023/12/24 11:07:34;;;;;;;1.83;0.53;;;10.30;99.90;;;;;;5031743;28;20262;-52
2023/12/24 11:10:00;;;;;;;0.77;0.30;;;10.30;99.90;;;;;;5031196;28;20196;-52
2023/12/24 11:12:37;;;;;;;0.80;0.43;;;10.30;99.90;;;;;;5039914;28;20196;-52
2023/12/24 11:15:03;;;;;;;0.10;0.10;;;10.20;99.90;;;;;;5031711;28;20188;-50
2023/12/24 11:17:38;;;;;;;0.20;0.20;;;10.20;99.90;;;;;;5031622;28;20191;-53
2023/12/24 11:20:24;;;;;;;0.53;0.40;;;10.20;99.90;;;;;;5024633;28;20203;-52
2023/12/24 11:23:04;;;;;;;1.47;0.30;;;10.20;99.90;;;;;;5023856;28;20176;-55
2023/12/24 11:25:41;;;;;;;1.10;1.00;;;10.20;99.90;;;;;;5031445;28;20544;-51
2023/12/24 11:28:12;;;;;;;1.20;0.70;;;10.20;99.90;;;;;;5030893;28;20226;-56
2023/12/24 11:30:50;;;;;;;2.57;1.13;;;10.20;99.90;;;;;;5030800;28;20204;-54
2023/12/24 11:33:28;;;;;;;1.33;1.10;;;10.20;99.90;;;;;;5030955;28;20187;-56
2023/12/24 11:35:55;;;;;;;0.50;0.30;;;10.10;99.90;;;;;;5024488;28;20321;-56
2023/12/24 11:38:36;;;;;;;1.47;0.70;;;10.10;99.90;;;;;;5030332;28;20172;-56
2023/12/24 11:41:08;;;;;;;0.73;0.30;;;10.10;99.90;;;;;;5030454;28;20199;-54
2023/12/24 11:43:35;;;;;;;1.50;0.60;;;10.10;99.90;;;;;;5028863;28;20657;-52
2023/12/24 11:46:02;;;;;;;0.70;0.50;;;10.10;99.90;;;;;;5025381;28;20179;-50
2023/12/24 11:48:29;;;;;;;1.17;0.67;;;10.20;99.90;;;;;;5031155;28;20241;-51
2023/12/24 11:51:06;;;;;;;0.93;0.60;;;10.20;99.90;;;;;;5038959;28;20257;-50
2023/12/24 11:53:33;;;;;;;1.13;0.30;;;10.30;99.90;;;;;;5030773;28;20187;-56
2023/12/24 11:56:13;;;;;;;0.30;0.30;;;10.30;99.90;;;;;;5030740;28;20258;-52
2023/12/24 11:58:55;;;;;;;0.87;0.60;;;10.30;99.90;;;;;;5030502;28;20637;-54
2023/12/24 12:01:32;;;;;;;0.73;0.40;;;10.30;99.90;;;;;;5030550;28;20216;-51
2023/12/24 12:04:03;;;;;;;0.67;0.43;;;10.40;99.90;;;;;;5030974;28;20657;-49
2023/12/24 12:06:30;;;;;;;0.43;0.43;;;10.40;99.90;;;;;;5029943;28;20264;-52
2023/12/24 12:09:04;;;;;;;2.67;0.40;;;10.40;99.90;;;;;;5030076;28;20172;-56
2023/12/24 12:11:29;;;;;;;1.33;0.20;;;10.40;99.90;;;;;;5029111;28;20211;-57
2023/12/24 12:13:55;;;;;;;0.90;0.60;;;10.30;99.90;;;;;;5029100;28;20558;-55
2023/12/24 12:16:21;;;;;;;1.33;0.60;;;10.30;99.90;;;;;;5030580;28;20215;-52
2023/12/24 12:18:46;;;;;;;0.20;0.20;;;10.30;99.90;;;;;;5029643;28;20183;-52
2023/12/24 12:21:12;;;;;;;1.20;0.40;;;10.20;99.90;;;;;;5030221;28;20215;-49
2023/12/24 12:23:38;;;;;;;0.70;0.40;;;10.30;99.90;;;;;;5029143;28;20179;-49
2023/12/24 12:26:04;;;;;;;0.77;0.30;;;10.30;99.90;;;;;;5030129;28;20599;-49
2023/12/24 12:28:30;;;;;;;0.50;0.40;;;10.40;99.90;;;;;;5029950;28;20191;-55
2023/12/24 12:30:55;;;;;;;0.90;0.60;;;10.40;99.90;;;;;;5029304;28;20253;-51
2023/12/24 12:33:21;;;;;;;1.10;0.67;;;10.40;99.90;;;;;;5029867;28;20606;-50
2023/12/24 12:35:47;;;;;;;0.80;0.70;;;10.40;99.90;;;;;;5030126;28;20195;-55
2023/12/24 12:38:12;;;;;;;0.70;0.40;;;10.40;99.90;;;;;;5024124;28;20183;-55
2023/12/24 12:40:38;;;;;;;0.60;0.47;;;10.40;99.90;;;;;;5027609;28;20207;-51
2023/12/24 12:43:03;;;;;;;1.03;0.40;;;10.40;99.90;;;;;;5028738;28;20607;-50
2023/12/24 12:45:29;;;;;;;0.40;0.40;;;10.30;99.90;;;;;;5030151;28;20179;-52
2023/12/24 12:47:54;;;;;;;1.97;0.43;;;10.30;99.90;;;;;;5028886;28;20184;-53
2023/12/24 12:50:20;;;;;;;2.20;1.50;;;10.30;99.90;;;;;;5027914;28;20695;-57
2023/12/24 12:52:49;;;;;;;1.23;0.97;;;10.40;99.90;;;;;;5026469;28;20184;-51